Time;durP1;ratioP1;P1;durP2;ratioP2;P2;SDS_P1;SDS_P2;PMS_P1;PMS_P2;Temp;Humidity;BMP_temperature;BMP_pressure;BME280_temperature;BME280_humidity;BME280_pressure;Samples;Min_cycle;Max_cycle;Signal;HPM_P1;HPM_P2
2021/10/16 00:01:22;;;;;;;;;;;8.90;99.90;;;;;;5069069;28;19916;-77
2021/10/16 00:03:48;;;;;;;;;;;8.90;99.90;;;;;;5062408;28;20335;-77
2021/10/16 00:06:14;;;;;;;;;;;9.00;99.90;;;;;;5061191;28;19912;-78
2021/10/16 00:08:40;;;;;;;;;;;9.00;99.90;;;;;;5068903;28;19920;-77
2021/10/16 00:11:06;;;;;;;;;;;9.00;99.90;;;;;;5064921;28;19917;-77
2021/10/16 00:13:31;;;;;;;;;;;9.00;99.90;;;;;;5064173;28;19967;-77
2021/10/16 00:15:57;;;;;;;;;;;9.00;99.90;;;;;;5067372;28;19948;-77
2021/10/16 00:18:23;;;;;;;;;;;9.00;99.90;;;;;;5064075;28;19917;-78
2021/10/16 00:20:48;;;;;;;;;;;9.10;99.90;;;;;;5071000;28;19944;-78
2021/10/16 00:23:14;;;;;;;;;;;9.10;99.90;;;;;;5070965;28;20065;-78
2021/10/16 00:25:39;;;;;;;;;;;9.10;99.90;;;;;;5066201;28;20193;-78
2021/10/16 00:28:05;;;;;;;;;;;9.10;99.90;;;;;;5081935;28;19917;-78
2021/10/16 00:30:31;;;;;;;;;;;9.10;99.90;;;;;;5071751;28;19912;-78
2021/10/16 00:32:56;;;;;;;;;;;9.20;99.90;;;;;;5073796;28;19931;-77
2021/10/16 00:35:22;;;;;;;;;;;9.20;99.90;;;;;;5070493;28;19912;-78
2021/10/16 00:37:48;;;;;;;;;;;9.20;99.90;;;;;;5070125;28;19925;-77
2021/10/16 00:40:14;;;;;;;;;;;9.20;99.90;;;;;;5069597;28;20003;-78
2021/10/16 00:42:43;;;;;;;;;;;9.20;99.90;;;;;;5086067;28;19924;-77
2021/10/16 00:45:09;;;;;;;;;;;9.20;99.90;;;;;;5072318;28;19962;-78
2021/10/16 00:47:35;;;;;;;;;;;9.20;99.90;;;;;;5072070;28;19990;-78
2021/10/16 00:50:00;;;;;;;;;;;9.20;99.90;;;;;;5068271;28;19921;-78
2021/10/16 00:52:26;;;;;;;;;;;9.20;99.90;;;;;;5064425;28;20011;-78
2021/10/16 00:54:51;;;;;;;;;;;9.30;99.90;;;;;;5066162;28;19926;-78
2021/10/16 00:57:17;;;;;;;;;;;9.30;99.90;;;;;;5065188;28;20185;-78
2021/10/16 00:59:43;;;;;;;;;;;9.30;99.90;;;;;;5070489;28;20295;-78
2021/10/16 01:02:08;;;;;;;;;;;9.30;99.90;;;;;;5065266;28;20201;-78
2021/10/16 01:04:34;;;;;;;;;;;9.30;99.90;;;;;;5068501;28;19934;-77
2021/10/16 01:06:59;;;;;;;;;;;9.30;99.90;;;;;;5068450;28;19920;-77
2021/10/16 01:09:25;;;;;;;;;;;9.30;99.90;;;;;;5068415;28;19920;-77
2021/10/16 01:11:54;;;;;;;;;;;9.30;99.90;;;;;;5065838;28;20267;-78
2021/10/16 01:14:20;;;;;;;;;;;9.30;99.90;;;;;;5069844;28;20311;-78
2021/10/16 01:16:49;;;;;;;;;;;9.30;99.90;;;;;;5071890;28;19926;-76
2021/10/16 01:19:15;;;;;;;;;;;9.30;99.90;;;;;;5062676;28;19927;-78
2021/10/16 01:21:45;;;;;;;;;;;9.30;99.90;;;;;;5059806;28;19966;-77
2021/10/16 01:24:11;;;;;;;;;;;9.30;99.90;;;;;;5077885;28;19919;-78
2021/10/16 01:26:37;;;;;;;;;;;9.30;99.90;;;;;;5061615;28;20211;-78
2021/10/16 01:29:03;;;;;;;;;;;9.40;99.90;;;;;;5058127;28;19913;-78
2021/10/16 01:31:29;;;;;;;;;;;9.30;99.90;;;;;;5073678;28;20011;-78
2021/10/16 01:33:55;;;;;;;;;;;9.30;99.90;;;;;;5061037;28;20307;-77
2021/10/16 01:36:20;;;;;;;;;;;9.30;99.90;;;;;;5063772;28;20032;-77
2021/10/16 01:38:47;;;;;;;;;;;9.40;99.90;;;;;;5061652;28;19916;-77
2021/10/16 01:41:12;;;;;;;;;;;9.30;99.90;;;;;;5064603;28;20316;-77
2021/10/16 01:43:38;;;;;;;;;;;9.30;99.90;;;;;;5058049;28;19919;-77
2021/10/16 01:46:03;;;;;;;;;;;9.30;99.90;;;;;;5059737;28;19920;-77
2021/10/16 01:48:29;;;;;;;;;;;9.30;99.90;;;;;;5056425;28;20013;-77
2021/10/16 01:50:55;;;;;;;;;;;9.30;99.90;;;;;;5062398;28;20183;-78
2021/10/16 01:53:21;;;;;;;;;;;9.30;99.90;;;;;;5062444;28;19919;-78
2021/10/16 01:55:47;;;;;;;;;;;9.30;99.90;;;;;;5064369;28;20005;-78
2021/10/16 01:58:13;;;;;;;;;;;9.40;99.90;;;;;;5057235;28;19983;-77
2021/10/16 02:00:39;;;;;;;;;;;9.50;99.90;;;;;;5055134;28;19912;-77
2021/10/16 02:03:08;;;;;;;;;;;9.60;99.90;;;;;;5059568;28;20473;-77
2021/10/16 02:05:35;;;;;;;;;;;9.70;99.90;;;;;;5055519;28;20293;-78
2021/10/16 02:08:00;;;;;;;;;;;9.70;99.90;;;;;;5054891;28;19923;-78
2021/10/16 02:10:26;;;;;;;;;;;9.80;99.90;;;;;;5061550;28;19920;-78
2021/10/16 02:12:51;;;;;;;;;;;9.80;99.90;;;;;;5056561;28;19912;-77
2021/10/16 02:15:17;;;;;;;;;;;9.80;99.90;;;;;;5072820;28;20219;-78
2021/10/16 02:17:44;;;;;;;;;;;9.70;99.90;;;;;;5065936;28;19912;-78
2021/10/16 02:20:09;;;;;;;;;;;9.70;99.90;;;;;;5067092;28;19913;-78
2021/10/16 02:22:35;;;;;;;;;;;9.70;99.90;;;;;;5072778;28;19988;-78
2021/10/16 02:25:01;;;;;;;;;;;9.70;99.90;;;;;;5072560;28;19916;-77
2021/10/16 02:27:26;;;;;;;;;;;9.70;99.90;;;;;;5063398;28;19917;-77
2021/10/16 02:29:52;;;;;;;;;;;9.70;99.90;;;;;;5054135;28;20437;-77
2021/10/16 02:32:17;;;;;;;;;;;9.80;99.90;;;;;;5058148;28;19912;-77
2021/10/16 02:34:43;;;;;;;;;;;9.90;99.90;;;;;;5054780;28;19916;-78
2021/10/16 02:37:08;;;;;;;;;;;9.90;99.90;;;;;;5055352;28;20324;-78
2021/10/16 02:39:34;;;;;;;;;;;9.90;99.90;;;;;;5056764;28;19916;-78
2021/10/16 02:42:00;;;;;;;;;;;9.90;99.90;;;;;;5053883;28;19917;-78
2021/10/16 02:44:26;;;;;;;;;;;9.90;99.90;;;;;;5072253;28;19924;-77
2021/10/16 02:46:51;;;;;;;;;;;9.90;99.90;;;;;;5063571;28;20301;-77
2021/10/16 02:49:17;;;;;;;;;;;9.90;99.90;;;;;;5086603;28;19912;-78
2021/10/16 02:51:44;;;;;;;;;;;9.80;99.90;;;;;;5071566;28;19934;-78
2021/10/16 02:54:09;;;;;;;;;;;9.80;99.90;;;;;;5064055;28;20343;-78
2021/10/16 02:56:35;;;;;;;;;;;9.70;99.90;;;;;;5059387;28;19987;-78
2021/10/16 02:59:00;;;;;;;;;;;9.70;99.90;;;;;;5059109;28;19967;-78
2021/10/16 03:01:26;;;;;;;;;;;9.60;99.90;;;;;;5067241;28;19924;-78
2021/10/16 03:03:55;;;;;;;;;;;9.60;99.90;;;;;;5064829;28;19912;-78
2021/10/16 03:06:21;;;;;;;;;;;9.60;99.90;;;;;;5073888;28;19944;-78
2021/10/16 03:08:46;;;;;;;;;;;9.50;99.90;;;;;;5066017;28;19979;-77
2021/10/16 03:11:12;;;;;;;;;;;9.50;99.90;;;;;;5059905;28;19917;-77
2021/10/16 03:13:37;;;;;;;;;;;9.50;99.90;;;;;;5076742;28;19912;-77
2021/10/16 03:16:03;;;;;;;;;;;9.60;99.90;;;;;;5075789;28;19917;-77
2021/10/16 03:18:29;;;;;;;;;;;9.50;99.90;;;;;;5071863;28;19912;-78
2021/10/16 03:20:54;;;;;;;;;;;9.50;99.90;;;;;;5064510;28;19956;-78
2021/10/16 03:23:20;;;;;;;;;;;9.60;99.90;;;;;;5064346;28;19919;-78
2021/10/16 03:25:45;;;;;;;;;;;9.60;99.90;;;;;;5065225;28;20349;-78
2021/10/16 03:28:11;;;;;;;;;;;9.70;99.90;;;;;;5058046;28;19924;-79
2021/10/16 03:30:37;;;;;;;;;;;9.90;99.90;;;;;;5057846;28;19913;-78
2021/10/16 03:33:03;;;;;;;;;;;9.90;99.90;;;;;;5062200;28;19961;-78
2021/10/16 03:35:29;;;;;;;;;;;9.80;99.90;;;;;;5057630;28;20295;-78
2021/10/16 03:37:55;;;;;;;;;;;9.70;99.90;;;;;;5064583;28;20003;-78
2021/10/16 03:40:21;;;;;;;;;;;9.70;99.90;;;;;;5073711;28;19927;-77
2021/10/16 03:42:46;;;;;;;;;;;9.70;99.90;;;;;;5075176;28;19924;-77
2021/10/16 03:45:12;;;;;;;;;;;9.80;99.90;;;;;;5068340;28;19921;-78
2021/10/16 03:47:37;;;;;;;;;;;9.70;99.90;;;;;;5075607;28;20280;-78
2021/10/16 03:50:03;;;;;;;;;;;9.60;99.90;;;;;;5072424;28;20319;-78
2021/10/16 03:52:29;;;;;;;;;;;9.50;99.90;;;;;;5069700;28;19912;-78
2021/10/16 03:54:54;;;;;;;;;;;9.50;99.90;;;;;;5071805;28;19974;-79
2021/10/16 03:57:20;;;;;;;;;;;9.50;99.90;;;;;;5070117;28;19920;-78
2021/10/16 03:59:46;;;;;;;;;;;9.40;99.90;;;;;;5072773;28;19920;-78
2021/10/16 04:02:11;;;;;;;;;;;9.40;99.90;;;;;;5071413;28;19974;-78
2021/10/16 04:04:37;;;;;;;;;;;9.40;99.90;;;;;;5065081;28;20231;-77
2021/10/16 04:07:03;;;;;;;;;;;9.30;99.90;;;;;;5065307;28;20269;-78
2021/10/16 04:09:28;;;;;;;;;;;9.40;99.90;;;;;;5056618;28;19924;-77
2021/10/16 04:11:54;;;;;;;;;;;9.40;99.90;;;;;;5058812;28;20302;-78
2021/10/16 04:14:20;;;;;;;;;;;9.30;99.90;;;;;;5071592;28;19913;-78
2021/10/16 04:16:45;;;;;;;;;;;9.30;99.90;;;;;;5055538;28;19927;-77
2021/10/16 04:19:11;;;;;;;;;;;9.30;99.90;;;;;;5070264;28;20330;-78
2021/10/16 04:21:37;;;;;;;;;;;9.30;99.90;;;;;;5058972;28;19917;-77
2021/10/16 04:24:02;;;;;;;;;;;9.30;99.90;;;;;;5056417;28;20266;-78
2021/10/16 04:26:28;;;;;;;;;;;9.30;99.90;;;;;;5057376;28;19920;-78
2021/10/16 04:28:54;;;;;;;;;;;9.30;99.90;;;;;;5066288;28;19920;-78
2021/10/16 04:31:20;;;;;;;;;;;9.20;99.90;;;;;;5067206;28;19920;-78
2021/10/16 04:33:46;;;;;;;;;;;9.20;99.90;;;;;;5062194;28;20011;-78
2021/10/16 04:36:11;;;;;;;;;;;9.30;99.90;;;;;;5061616;28;19924;-79
2021/10/16 04:38:37;;;;;;;;;;;9.30;99.90;;;;;;5070611;28;19916;-78
2021/10/16 04:41:03;;;;;;;;;;;9.30;99.90;;;;;;5070922;28;19928;-79
2021/10/16 04:43:28;;;;;;;;;;;9.30;99.90;;;;;;5071855;28;19991;-78
2021/10/16 04:45:54;;;;;;;;;;;9.40;99.90;;;;;;5072520;28;19919;-79
2021/10/16 04:48:20;;;;;;;;;;;9.40;99.90;;;;;;5069910;28;20311;-79
2021/10/16 04:50:46;;;;;;;;;;;9.40;99.90;;;;;;5071503;28;19921;-79
2021/10/16 04:53:12;;;;;;;;;;;9.30;99.90;;;;;;5070482;28;20265;-78
2021/10/16 04:55:37;;;;;;;;;;;9.30;99.90;;;;;;5065910;28;19913;-78
2021/10/16 04:58:03;;;;;;;;;;;9.30;99.90;;;;;;5068692;28;19958;-78
2021/10/16 05:00:29;;;;;;;;;;;9.30;99.90;;;;;;5066922;28;19913;-78
2021/10/16 05:02:54;;;;;;;;;;;9.40;99.90;;;;;;5064944;28;20008;-78
2021/10/16 05:05:20;;;;;;;;;;;9.30;99.90;;;;;;5064934;28;20011;-78
2021/10/16 05:07:45;;;;;;;;;;;9.30;99.90;;;;;;5069714;28;20543;-78
2021/10/16 05:10:11;;;;;;;;;;;9.20;99.90;;;;;;5070354;28;19916;-78
2021/10/16 05:12:37;;;;;;;;;;;9.20;99.90;;;;;;5068007;28;19943;-77
2021/10/16 05:15:03;;;;;;;;;;;9.20;99.90;;;;;;5066165;28;19917;-79
2021/10/16 05:17:30;;;;;;;;;;;9.10;99.90;;;;;;5070462;28;19912;-78
2021/10/16 05:19:55;;;;;;;;;;;9.10;99.90;;;;;;5068296;28;19932;-79
2021/10/16 05:22:21;;;;;;;;;;;9.10;99.90;;;;;;5071680;28;19920;-78
2021/10/16 05:24:47;;;;;;;;;;;9.10;99.90;;;;;;5067741;28;19912;-79
2021/10/16 05:27:12;;;;;;;;;;;9.10;99.90;;;;;;5072334;28;19912;-78
2021/10/16 05:29:38;;;;;;;;;;;9.10;99.90;;;;;;5068461;28;19912;-78
2021/10/16 05:32:03;;;;;;;;;;;9.10;99.90;;;;;;5065150;28;19958;-78
2021/10/16 05:34:29;;;;;;;;;;;9.20;99.90;;;;;;5068839;28;20050;-78
2021/10/16 05:36:55;;;;;;;;;;;9.20;99.90;;;;;;5063769;28;19927;-78
2021/10/16 05:39:20;;;;;;;;;;;9.20;99.90;;;;;;5068031;28;19916;-78
2021/10/16 05:41:48;;;;;;;;;;;9.20;99.90;;;;;;5081317;28;20169;-78
2021/10/16 05:44:14;;;;;;;;;;;9.20;99.90;;;;;;5054571;28;19912;-78
2021/10/16 05:46:40;;;;;;;;;;;9.20;99.90;;;;;;5063916;28;19920;-78
2021/10/16 05:49:05;;;;;;;;;;;9.20;99.90;;;;;;5058094;28;20258;-78
2021/10/16 05:51:31;;;;;;;;;;;9.20;99.90;;;;;;5059560;28;20422;-78
2021/10/16 05:53:57;;;;;;;;;;;9.30;99.90;;;;;;5061600;28;19917;-78
2021/10/16 05:56:22;;;;;;;;;;;9.40;99.90;;;;;;5064304;28;19913;-78
2021/10/16 05:58:48;;;;;;;;;;;9.40;99.90;;;;;;5072186;28;20307;-78
2021/10/16 06:01:13;;;;;;;;;;;9.40;99.90;;;;;;5063532;28;20220;-77
2021/10/16 06:03:39;;;;;;;;;;;9.40;99.90;;;;;;5063279;28;19913;-78
2021/10/16 06:06:05;;;;;;;;;;;9.40;99.90;;;;;;5054704;28;19927;-78
2021/10/16 06:08:30;;;;;;;;;;;9.40;99.90;;;;;;5055279;28;20581;-78
2021/10/16 06:10:56;;;;;;;;;;;9.40;99.90;;;;;;5058656;28;20205;-78
2021/10/16 06:13:23;;;;;;;;;;;9.40;99.90;;;;;;5071148;28;19976;-78
2021/10/16 06:15:49;;;;;;;;;;;9.40;99.90;;;;;;5068546;28;19920;-78
2021/10/16 06:18:14;;;;;;;;;;;9.40;99.90;;;;;;5067349;28;19923;-78
2021/10/16 06:20:40;;;;;;;;;;;9.40;99.90;;;;;;5074473;28;19919;-78
2021/10/16 06:23:06;;;;;;;;;;;9.30;99.90;;;;;;5069172;28;19920;-78
2021/10/16 06:25:31;;;;;;;;;;;9.20;99.90;;;;;;5070695;28;20307;-78
2021/10/16 06:27:57;;;;;;;;;;;9.30;99.90;;;;;;5072790;28;19965;-78
2021/10/16 06:30:23;;;;;;;;;;;9.30;99.90;;;;;;5067993;28;19931;-78
2021/10/16 06:32:48;;;;;;;;;;;9.30;99.90;;;;;;5072680;28;20315;-77
2021/10/16 06:35:14;;;;;;;;;;;9.20;99.90;;;;;;5069231;28;19935;-78
2021/10/16 06:37:40;;;;;;;;;;;9.30;99.90;;;;;;5071827;28;19979;-79
2021/10/16 06:40:06;;;;;;;;;;;9.30;99.90;;;;;;5070058;28;20235;-77
2021/10/16 06:42:31;;;;;;;;;;;9.40;99.90;;;;;;5066092;28;20239;-78
2021/10/16 06:44:57;;;;;;;;;;;9.40;99.90;;;;;;5069671;28;19923;-78
2021/10/16 06:47:22;;;;;;;;;;;9.50;99.90;;;;;;5067854;28;20370;-77
2021/10/16 06:49:48;;;;;;;;;;;9.50;99.90;;;;;;5078315;28;19919;-78
2021/10/16 06:52:14;;;;;;;;;;;9.60;99.90;;;;;;5070057;28;19912;-78
2021/10/16 06:54:39;;;;;;;;;;;9.60;99.90;;;;;;5073470;28;20007;-78
2021/10/16 06:57:05;;;;;;;;;;;9.60;99.90;;;;;;5069067;28;19912;-78
2021/10/16 06:59:31;;;;;;;;;;;9.60;99.90;;;;;;5068411;28;19985;-78
2021/10/16 07:01:56;;;;;;;;;;;9.70;99.90;;;;;;5071125;28;19927;-79
2021/10/16 07:04:22;;;;;;;;;;;9.70;99.90;;;;;;5069957;28;19920;-77
2021/10/16 07:06:48;;;;;;;;;;;9.70;99.90;;;;;;5071405;28;20307;-79
2021/10/16 07:09:13;;;;;;;;;;;9.70;99.90;;;;;;5070545;28;20262;-78
2021/10/16 07:11:41;;;;;;;;;;;9.60;99.90;;;;;;5069074;28;19921;-77
2021/10/16 07:14:06;;;;;;;;;;;9.60;99.90;;;;;;5064840;28;21849;-76
2021/10/16 07:16:36;;;;;;;;;;;9.60;99.90;;;;;;5080838;28;19921;-78
2021/10/16 07:19:01;;;;;;;;;;;9.60;99.90;;;;;;5064219;28;19989;-78
2021/10/16 07:21:27;;;;;;;;;;;9.70;99.90;;;;;;5066073;28;20335;-78
2021/10/16 07:23:53;;;;;;;;;;;9.80;99.90;;;;;;5060496;28;19916;-77
2021/10/16 07:26:18;;;;;;;;;;;9.80;99.90;;;;;;5070376;28;20278;-78
2021/10/16 07:28:44;;;;;;;;;;;9.90;99.90;;;;;;5063253;28;19920;-78
2021/10/16 07:31:10;;;;;;;;;;;9.80;99.90;;;;;;5063728;28;19966;-77
2021/10/16 07:33:36;;;;;;;;;;;9.90;99.90;;;;;;5063048;28;20319;-77
2021/10/16 07:36:01;;;;;;;;;;;9.90;99.90;;;;;;5069933;28;19931;-77
2021/10/16 07:38:27;;;;;;;;;;;10.00;99.90;;;;;;5073365;28;19955;-77
2021/10/16 07:40:52;;;;;;;;;;;10.00;99.90;;;;;;5072470;28;19920;-77
2021/10/16 07:43:18;;;;;;;;;;;10.10;99.90;;;;;;5089843;28;19916;-77
2021/10/16 07:45:44;;;;;;;;;;;10.10;99.90;;;;;;5071228;28;19959;-77
2021/10/16 07:48:09;;;;;;;;;;;10.20;99.90;;;;;;5071162;28;19916;-78
2021/10/16 07:50:35;;;;;;;;;;;10.10;99.90;;;;;;5071110;28;19913;-77
2021/10/16 07:53:03;;;;;;;;;;;10.10;99.90;;;;;;5072910;28;19951;-77
2021/10/16 07:55:28;;;;;;;;;;;10.10;99.90;;;;;;5071852;28;20007;-77
2021/10/16 07:57:54;;;;;;;;;;;10.10;99.90;;;;;;5072359;28;20023;-77
2021/10/16 08:00:20;;;;;;;;;;;10.10;99.90;;;;;;5073479;28;19948;-77
2021/10/16 08:02:46;;;;;;;;;;;10.10;99.90;;;;;;5071360;28;19966;-77
2021/10/16 08:05:14;;;;;;;;;;;10.10;99.90;;;;;;5073323;28;20288;-78
2021/10/16 08:07:41;;;;;;;;;;;10.20;99.90;;;;;;5076505;28;19912;-77
2021/10/16 08:10:07;;;;;;;;;;;10.20;99.90;;;;;;5071767;28;19913;-78
2021/10/16 08:12:33;;;;;;;;;;;10.20;99.90;;;;;;5062889;28;20326;-78
2021/10/16 08:14:58;;;;;;;;;;;10.20;99.90;;;;;;5070625;28;19913;-77
2021/10/16 08:17:24;;;;;;;;;;;10.20;99.90;;;;;;5068790;28;20277;-77
2021/10/16 08:19:50;;;;;;;;;;;10.20;99.90;;;;;;5062334;28;19916;-78
2021/10/16 08:22:15;;;;;;;;;;;10.20;99.90;;;;;;5063949;28;20055;-78
2021/10/16 08:24:42;;;;;;;;;;;10.20;99.90;;;;;;5058119;28;20223;-77
2021/10/16 08:27:09;;;;;;;;;;;10.20;99.90;;;;;;5059221;28;20000;-77
2021/10/16 08:29:34;;;;;;;;;;;10.20;99.90;;;;;;5085747;28;20408;-78
2021/10/16 08:32:00;;;;;;;;;;;10.30;99.90;;;;;;5077254;28;19975;-79
2021/10/16 08:34:26;;;;;;;;;;;10.30;99.90;;;;;;5074542;28;20002;-78
2021/10/16 08:36:51;;;;;;;;;;;10.30;99.90;;;;;;5068367;28;19936;-78
2021/10/16 08:39:21;;;;;;;;;;;10.40;99.90;;;;;;5073904;28;20218;-78
2021/10/16 08:41:47;;;;;;;;;;;10.50;99.90;;;;;;5067431;28;19921;-77
2021/10/16 08:44:12;;;;;;;;;;;10.50;99.90;;;;;;5070826;28;19913;-78
2021/10/16 08:46:41;;;;;;;;;;;10.50;99.90;;;;;;5072891;28;20305;-77
2021/10/16 08:49:09;;;;;;;;;;;10.50;99.90;;;;;;5068885;28;20371;-79
2021/10/16 08:51:34;;;;;;;;;;;10.50;99.90;;;;;;5063659;28;19913;-78
2021/10/16 08:54:00;;;;;;;;;;;10.50;99.90;;;;;;5071268;28;19916;-78
2021/10/16 08:56:25;;;;;;;;;;;10.50;99.90;;;;;;5062095;28;19931;-78
2021/10/16 08:58:51;;;;;;;;;;;10.60;99.90;;;;;;5071407;28;19920;-78
2021/10/16 09:01:17;;;;;;;;;;;10.60;99.90;;;;;;5071934;28;20258;-78
2021/10/16 09:03:51;;;;;;;;;;;10.70;99.90;;;;;;5071823;28;19913;-78
2021/10/16 09:06:27;;;;;;;;;;;10.70;99.90;;;;;;5080512;28;19912;-78
2021/10/16 09:08:54;;;;;;;;;;;10.80;99.90;;;;;;5072423;28;19919;-77
2021/10/16 09:11:24;;;;;;;;;;;10.80;99.90;;;;;;5072588;28;20204;-78
2021/10/16 09:14:04;;;;;;;;;;;10.80;99.90;;;;;;5070553;28;19958;-78
2021/10/16 09:16:30;;;;;;;;;;;10.90;99.90;;;;;;5072033;28;19913;-78
2021/10/16 09:19:00;;;;;;;;;;;11.00;99.90;;;;;;5071777;28;19919;-78
2021/10/16 09:21:27;;;;;;;;;;;11.10;99.90;;;;;;5071702;28;20401;-79
2021/10/16 09:24:25;;;;;;;;;;;11.10;99.90;;;;;;5070955;28;19927;-78
2021/10/16 09:26:55;;;;;;;;;;;11.20;99.90;;;;;;5060414;28;19912;-78
2021/10/16 09:29:22;;;;;;;;;;;11.20;99.90;;;;;;5072294;28;19920;-78
2021/10/16 09:31:49;;;;;;;;;;;11.30;99.90;;;;;;5072251;28;19966;-77
2021/10/16 09:34:21;;;;;;;;;;;11.30;99.90;;;;;;5072605;28;19916;-78
2021/10/16 09:36:46;;;;;;;;;;;11.40;99.90;;;;;;5072325;28;19982;-77
2021/10/16 09:39:16;;;;;;;;;;;11.40;99.90;;;;;;5072458;28;19916;-78
2021/10/16 09:41:42;;;;;;;;;;;11.50;99.90;;;;;;5072459;28;20333;-78
2021/10/16 09:44:29;;;;;;;;;;;11.50;99.90;;;;;;5069463;28;20491;-78
2021/10/16 09:46:55;;;;;;;;;;;11.60;99.90;;;;;;5073557;28;19920;-78
2021/10/16 09:49:26;;;;;;;;;;;11.60;99.90;;;;;;5069554;28;20008;-78
2021/10/16 09:51:52;;;;;;;;;;;11.70;99.90;;;;;;5068939;28;19916;-78
2021/10/16 09:54:18;;;;;;;;;;;11.70;99.90;;;;;;5064259;28;20006;-78
2021/10/16 09:56:43;;;;;;;;;;;11.70;99.90;;;;;;5064647;28;19917;-78
2021/10/16 09:59:10;;;;;;;;;;;11.70;99.90;;;;;;5062545;28;19919;-79
2021/10/16 10:01:36;;;;;;;;;;;11.70;99.90;;;;;;5063819;28;19970;-78
2021/10/16 10:04:03;;;;;;;;;;;11.70;99.90;;;;;;5072050;28;20249;-77
2021/10/16 10:06:29;;;;;;;;;;;11.80;99.90;;;;;;5083828;28;19920;-78
2021/10/16 10:08:56;;;;;;;;;;;11.70;99.90;;;;;;5070936;28;20235;-78
2021/10/16 10:11:22;;;;;;;;;;;11.80;99.90;;;;;;5074365;28;20347;-78
2021/10/16 10:13:49;;;;;;;;;;;11.90;99.90;;;;;;5056297;28;20319;-77
2021/10/16 10:16:15;;;;;;;;;;;11.90;99.90;;;;;;5060154;28;19927;-78
2021/10/16 10:19:00;;;;;;;;;;;11.90;99.90;;;;;;5060584;28;19920;-78
2021/10/16 10:21:33;;;;;;;;;;;11.90;99.90;;;;;;5065214;28;19962;-78
2021/10/16 10:23:59;;;;;;;;;;;11.90;99.90;;;;;;5073060;28;19916;-78
2021/10/16 10:26:26;;;;;;;;;;;11.90;99.90;;;;;;5065562;28;19974;-78
2021/10/16 10:28:53;;;;;;;;;;;11.90;99.90;;;;;;5073492;28;19912;-78
2021/10/16 10:31:37;;;;;;;;;;;12.00;99.90;;;;;;5060818;28;20212;-78
2021/10/16 10:34:03;;;;;;;;;;;12.00;99.90;;;;;;5060821;28;19960;-78
2021/10/16 10:36:42;;;;;;;;;;;12.10;99.90;;;;;;5057231;28;20354;-78
2021/10/16 10:39:34;;;;;;;;;;;12.20;99.90;;;;;;5059339;28;19920;-77
2021/10/16 10:41:59;;;;;;;;;;;12.30;99.90;;;;;;5051740;28;19916;-78
2021/10/16 10:44:41;;;;;;;;;;;12.40;99.90;;;;;;5061197;28;20226;-78
2021/10/16 10:47:36;;;;;;;;;;;12.40;99.90;;;;;;5058417;28;19917;-78
2021/10/16 10:50:09;;;;;;;;;;;12.50;99.90;;;;;;5051354;28;19960;-78
2021/10/16 10:52:53;;;;;;;;;;;12.50;99.90;;;;;;5033338;28;19917;-78
2021/10/16 10:55:19;;;;;;;;;;;12.60;99.90;;;;;;5032955;28;20307;-78
2021/10/16 10:57:45;;;;;;;;;;;12.50;99.90;;;;;;5049338;28;19927;-78
2021/10/16 11:00:15;;;;;;;;;;;12.60;99.90;;;;;;5043802;28;19917;-78
2021/10/16 11:02:41;;;;;;;;;;;12.60;99.90;;;;;;5048587;28;19925;-78
2021/10/16 11:05:30;;;;;;;;;;;12.60;99.90;;;;;;5048400;28;19921;-78
2021/10/16 11:08:07;;;;;;;;;;;12.60;99.90;;;;;;5033264;28;19923;-78
2021/10/16 11:10:33;;;;;;;;;;;12.60;99.90;;;;;;5053476;28;19917;-78
2021/10/16 11:13:09;;;;;;;;;;;12.60;99.90;;;;;;5036969;28;19916;-78
2021/10/16 11:15:34;;;;;;;;;;;12.60;99.90;;;;;;5055535;28;19921;-78
2021/10/16 11:18:08;;;;;;;;;;;12.50;99.90;;;;;;5036836;28;19920;-78
2021/10/16 11:20:34;;;;;;;;;;;12.50;99.90;;;;;;5049159;28;19913;-78
2021/10/16 11:22:59;;;;;;;;;;;12.50;99.90;;;;;;5053055;28;19920;-78
2021/10/16 11:25:26;;;;;;;;;;;12.50;99.90;;;;;;5058607;28;19913;-78
2021/10/16 11:28:13;;;;;;;;;;;12.50;99.90;;;;;;5068841;28;20019;-78
2021/10/16 11:30:43;;;;;;;;;;;12.50;99.90;;;;;;5061847;28;19936;-78
2021/10/16 11:33:09;;;;;;;;;;;12.50;99.90;;;;;;5056070;28;19913;-78
2021/10/16 11:35:36;;;;;;;;;;;12.50;99.90;;;;;;5066715;28;19916;-78
2021/10/16 11:38:02;;;;;;;;;;;12.50;99.90;;;;;;5061741;28;19952;-78
2021/10/16 11:40:29;;;;;;;;;;;12.60;99.90;;;;;;5067697;28;20006;-78
2021/10/16 11:42:54;;;;;;;;;;;12.60;99.90;;;;;;5070160;28;19917;-78
2021/10/16 11:45:22;;;;;;;;;;;12.70;99.90;;;;;;5062604;28;19913;-79
2021/10/16 11:47:49;;;;;;;;;;;12.90;99.90;;;;;;5064290;28;20304;-78
2021/10/16 11:50:22;;;;;;;;;;;13.20;99.90;;;;;;5063292;28;20032;-80
2021/10/16 11:52:52;;;;;;;;;;;13.40;99.90;;;;;;5079062;28;19962;-79
2021/10/16 11:55:19;;;;;;;;;;;13.50;99.90;;;;;;5063457;28;19948;-78
2021/10/16 11:57:45;;;;;;;;;;;13.50;99.90;;;;;;5058238;28;19968;-79
2021/10/16 12:00:26;;;;;;;;;;;13.60;99.90;;;;;;5064336;28;19924;-79
2021/10/16 12:02:52;;;;;;;;;;;13.60;99.90;;;;;;5057356;28;20289;-79
2021/10/16 12:05:19;;;;;;;;;;;13.60;99.90;;;;;;5069193;28;20007;-80
2021/10/16 12:07:46;;;;;;;;;;;13.60;99.90;;;;;;5087388;28;19912;-79
2021/10/16 12:10:17;;;;;;;;;;;13.60;99.90;;;;;;5069608;28;19920;-79
2021/10/16 12:12:58;;;;;;;;;;;13.60;99.90;;;;;;5077402;28;19913;-79
2021/10/16 12:15:25;;;;;;;;;;;13.60;99.90;;;;;;5074712;28;19920;-79
2021/10/16 12:17:51;;;;;;;;;;;13.60;99.90;;;;;;5058112;28;20300;-80
2021/10/16 12:20:17;;;;;;;;;;;13.60;99.90;;;;;;5074625;28;19919;-79
2021/10/16 12:22:59;;;;;;;;;;;13.60;99.90;;;;;;5071426;28;19920;-79
2021/10/16 12:25:25;;;;;;;;;;;13.60;99.90;;;;;;5069651;28;20218;-79
2021/10/16 12:28:03;;;;;;;;;;;13.50;99.90;;;;;;5090507;28;19908;-80
2021/10/16 12:30:29;;;;;;;;;;;13.50;99.90;;;;;;5063725;28;19920;-79
2021/10/16 12:33:02;;;;;;;;;;;13.50;99.90;;;;;;5071163;28;20258;-80
2021/10/16 12:35:28;;;;;;;;;;;13.70;99.90;;;;;;5070749;28;20273;-79
2021/10/16 12:38:00;;;;;;;;;;;13.90;99.90;;;;;;5078875;28;19919;-80
2021/10/16 12:40:35;;;;;;;;;;;14.00;99.90;;;;;;5072745;28;19923;-78
2021/10/16 12:43:00;;;;;;;;;;;14.10;99.90;;;;;;5074045;28;19916;-80
2021/10/16 12:45:34;;;;;;;;;;;14.20;99.90;;;;;;5070224;28;19921;-80
2021/10/16 12:48:26;;;;;;;;;;;14.30;99.90;;;;;;5073156;28;19916;-80
2021/10/16 12:50:53;;;;;;;;;;;14.30;99.90;;;;;;5067303;28;19916;-80
2021/10/16 12:53:19;;;;;;;;;;;14.40;99.90;;;;;;5065877;28;19920;-81
2021/10/16 12:55:45;;;;;;;;;;;14.50;99.90;;;;;;5069897;28;19912;-81
2021/10/16 12:58:10;;;;;;;;;;;14.40;99.90;;;;;;5071618;28;19919;-81
2021/10/16 13:00:36;;;;;;;;;;;14.40;99.90;;;;;;5093341;28;20668;-79
2021/10/16 13:03:04;;;;;;;;;;;14.40;99.90;;;;;;5066218;28;19921;-79
2021/10/16 13:05:30;;;;;;;;;;;14.50;99.90;;;;;;5068499;28;19947;-79
2021/10/16 13:07:56;;;;;;;;;;;14.70;99.90;;;;;;5073185;28;20244;-78
2021/10/16 13:10:22;;;;;;;;;;;14.90;99.90;;;;;;5071994;28;19916;-80
2021/10/16 13:12:47;;;;;;;;;;;15.10;99.90;;;;;;5071651;28;19922;-81
2021/10/16 13:15:14;;;;;;;;;;;15.20;99.90;;;;;;5073666;28;19994;-80
2021/10/16 13:17:40;;;;;;;;;;;15.20;99.90;;;;;;5068825;28;19920;-81
2021/10/16 13:20:06;;;;;;;;;;;15.20;99.90;;;;;;5067629;28;20034;-80
2021/10/16 13:22:32;;;;;;;;;;;15.20;99.90;;;;;;5073661;28;19924;-81
2021/10/16 13:24:59;;;;;;;;;;;15.20;99.90;;;;;;5074527;28;20003;-80
2021/10/16 13:27:25;;;;;;;;;;;15.10;99.90;;;;;;5068812;28;19970;-80
2021/10/16 13:29:52;;;;;;;;;;;15.20;99.90;;;;;;5070295;28;19952;-78
2021/10/16 13:32:18;;;;;;;;;;;15.20;99.90;;;;;;5072580;28;19970;-81
2021/10/16 13:34:44;;;;;;;;;;;15.20;99.90;;;;;;5073588;28;19966;-80
2021/10/16 13:37:09;;;;;;;;;;;15.10;99.90;;;;;;5069904;28;19924;-79
2021/10/16 13:39:35;;;;;;;;;;;15.10;99.90;;;;;;5069581;28;19912;-81
2021/10/16 13:42:01;;;;;;;;;;;15.00;99.90;;;;;;5072296;28;19924;-80
2021/10/16 13:44:26;;;;;;;;;;;15.00;99.90;;;;;;5072930;28;19921;-80
2021/10/16 13:46:52;;;;;;;;;;;15.00;99.90;;;;;;5071836;28;19991;-81
2021/10/16 13:49:18;;;;;;;;;;;15.00;99.90;;;;;;5072473;28;19916;-82
2021/10/16 13:51:44;;;;;;;;;;;14.90;99.90;;;;;;5072091;28;20211;-82
2021/10/16 13:54:09;;;;;;;;;;;14.80;99.90;;;;;;5072098;28;19912;-82
2021/10/16 13:56:36;;;;;;;;;;;14.70;99.90;;;;;;5074137;28;19919;-80
2021/10/16 13:59:01;;;;;;;;;;;14.70;99.90;;;;;;5071045;28;20040;-80
2021/10/16 14:01:29;;;;;;;;;;;14.60;99.90;;;;;;5085971;28;20031;-79
2021/10/16 14:03:55;;;;;;;;;;;14.60;99.90;;;;;;5071196;28;19920;-80
2021/10/16 14:06:20;;;;;;;;;;;14.50;99.90;;;;;;5071796;28;19925;-82
2021/10/16 14:08:48;;;;;;;;;;;14.50;99.90;;;;;;5070885;28;19943;-82
2021/10/16 14:11:14;;;;;;;;;;;14.50;99.90;;;;;;5070654;28;19917;-83
2021/10/16 14:13:40;;;;;;;;;;;14.50;99.90;;;;;;5070663;28;19932;-81
2021/10/16 14:16:09;;;;;;;;;;;14.50;99.90;;;;;;5065451;28;20006;-80
2021/10/16 14:18:35;;;;;;;;;;;14.40;99.90;;;;;;5069652;28;19913;-82
2021/10/16 14:21:01;;;;;;;;;;;14.20;99.90;;;;;;5072958;28;19916;-83
2021/10/16 14:23:26;;;;;;;;;;;14.00;99.90;;;;;;5071892;28;19973;-81